createdAt,value
2019-03-21T00:02:02.299Z,17.00
2019-03-21T00:04:32.796Z,16.93
2019-03-21T00:07:03.247Z,18.47
2019-03-21T00:09:33.752Z,23.37
2019-03-21T00:12:11.454Z,21.33
2019-03-21T00:14:58.445Z,17.33
2019-03-21T00:17:39.275Z,21.57
2019-03-21T00:20:13.813Z,21.53
2019-03-21T00:22:44.303Z,20.77
2019-03-21T00:25:23.326Z,22.30
2019-03-21T00:27:53.822Z,17.43
2019-03-21T00:30:26.718Z,15.83
2019-03-21T00:32:58.009Z,17.73
2019-03-21T00:35:28.507Z,16.83
2019-03-21T00:37:58.971Z,18.03
2019-03-21T00:40:36.679Z,16.67
2019-03-21T00:43:11.139Z,20.70
2019-03-21T00:45:41.609Z,20.80
2019-03-21T00:48:16.271Z,19.70
2019-03-21T00:50:46.737Z,20.73
2019-03-21T00:53:17.297Z,19.00
2019-03-21T00:55:51.938Z,14.27
2019-03-21T00:58:22.435Z,17.93
2019-03-21T01:01:02.660Z,17.30
2019-03-21T01:03:33.146Z,14.80
2019-03-21T01:06:03.596Z,16.10
2019-03-21T01:08:34.104Z,12.20
2019-03-21T01:11:04.586Z,16.60
2019-03-21T01:13:38.751Z,15.50
2019-03-21T01:16:09.369Z,16.67
2019-03-21T01:18:46.367Z,14.10
2019-03-21T01:21:16.849Z,19.07
2019-03-21T01:23:47.305Z,11.40
2019-03-21T01:26:17.801Z,15.63
2019-03-21T01:28:48.253Z,13.73
2019-03-21T01:31:18.739Z,17.13
2019-03-21T01:33:49.191Z,14.73
2019-03-21T01:36:22.706Z,15.10
2019-03-21T01:38:53.159Z,19.47
2019-03-21T01:41:23.678Z,12.97
2019-03-21T01:43:54.131Z,15.53
2019-03-21T01:46:28.578Z,15.60
2019-03-21T01:48:59.038Z,11.50
2019-03-21T01:51:29.603Z,16.07
2019-03-21T01:54:00.066Z,18.57
2019-03-21T01:56:31.759Z,17.03
2019-03-21T01:59:02.242Z,14.43
2019-03-21T02:01:32.867Z,21.37
2019-03-21T02:04:03.351Z,17.90
2019-03-21T02:06:33.818Z,19.03
2019-03-21T02:09:08.338Z,24.80
2019-03-21T02:11:39.026Z,20.23
2019-03-21T02:14:09.520Z,23.23
2019-03-21T02:16:40.005Z,18.10
2019-03-21T02:19:10.498Z,22.40
2019-03-21T02:21:41.004Z,20.83
2019-03-21T02:24:11.477Z,15.00
2019-03-21T02:26:41.968Z,16.50
2019-03-21T02:29:12.441Z,15.93
2019-03-21T02:31:42.923Z,17.03
2019-03-21T02:34:13.374Z,15.10
2019-03-21T02:36:44.097Z,16.63
2019-03-21T02:39:14.626Z,18.77
2019-03-21T02:41:45.108Z,19.33
2019-03-21T02:44:15.571Z,19.90
2019-03-21T02:46:46.057Z,16.97
2019-03-21T02:49:16.524Z,18.97
2019-03-21T02:51:47.015Z,20.30
2019-03-21T02:54:17.497Z,20.87
2019-03-21T02:56:48.133Z,17.33
2019-03-21T02:59:18.641Z,17.20
2019-03-21T03:01:49.092Z,16.77
2019-03-21T03:04:19.578Z,17.43
2019-03-21T03:06:50.791Z,17.10
2019-03-21T03:09:21.273Z,17.47
2019-03-21T03:11:51.736Z,18.93
2019-03-21T03:14:22.228Z,15.70
2019-03-21T03:16:52.686Z,16.00
2019-03-21T03:19:23.170Z,15.77
2019-03-21T03:21:53.652Z,17.57
2019-03-21T03:24:25.208Z,16.67
2019-03-21T03:26:55.707Z,16.40
2019-03-21T03:29:26.163Z,18.13
2019-03-21T03:31:56.661Z,19.17
2019-03-21T03:34:27.125Z,21.30
2019-03-21T03:36:57.602Z,20.73
2019-03-21T03:39:28.166Z,20.00
2019-03-21T03:41:58.821Z,20.63
2019-03-21T03:44:29.277Z,15.00
2019-03-21T03:46:59.757Z,19.47
2019-03-21T03:49:30.212Z,24.30
2019-03-21T03:52:00.701Z,19.77
2019-03-21T03:54:31.234Z,20.37
2019-03-21T03:57:01.725Z,19.27
2019-03-21T03:59:32.182Z,17.53
2019-03-21T04:02:02.814Z,17.53
2019-03-21T04:04:33.294Z,18.30
2019-03-21T04:07:03.793Z,17.77
2019-03-21T04:09:34.335Z,16.07
2019-03-21T04:12:04.979Z,18.47
2019-03-21T04:14:35.450Z,27.23
2019-03-21T04:17:05.937Z,20.67
2019-03-21T04:19:36.400Z,18.17
2019-03-21T04:22:06.895Z,20.53
2019-03-21T04:24:37.356Z,26.20
2019-03-21T04:27:07.988Z,16.90
2019-03-21T04:29:38.474Z,19.13
2019-03-21T04:32:08.950Z,15.73
2019-03-21T04:34:39.450Z,17.50
2019-03-21T04:37:09.912Z,24.30
2019-03-21T04:39:40.489Z,19.37
2019-03-21T04:42:10.954Z,18.67
2019-03-21T04:44:41.433Z,20.37
2019-03-21T04:47:11.895Z,22.23
2019-03-21T04:49:42.391Z,21.23
2019-03-21T04:52:12.879Z,19.10
2019-03-21T04:54:43.339Z,19.23
2019-03-21T04:57:13.833Z,24.03
2019-03-21T04:59:44.299Z,21.87
2019-03-21T05:02:14.795Z,18.63
2019-03-21T05:04:45.266Z,24.37
2019-03-21T05:07:15.766Z,27.00
2019-03-21T05:09:46.267Z,20.43
2019-03-21T05:12:16.758Z,17.27
2019-03-21T05:14:47.247Z,26.70
2019-03-21T05:17:17.735Z,28.07
2019-03-21T05:19:48.202Z,25.30
2019-03-21T05:22:18.710Z,27.23
2019-03-21T05:24:49.199Z,30.23
2019-03-21T05:27:19.669Z,27.00
2019-03-21T05:29:50.152Z,29.37
2019-03-21T05:32:20.619Z,32.40
2019-03-21T05:34:51.113Z,30.30
2019-03-21T05:37:21.601Z,30.70
2019-03-21T05:39:52.087Z,28.57
2019-03-21T05:42:22.651Z,33.20
2019-03-21T05:44:53.151Z,136.33
2019-03-21T05:47:23.648Z,87.23
2019-03-21T05:49:54.107Z,98.03
2019-03-21T05:52:24.605Z,89.90
2019-03-21T05:54:55.141Z,80.40
2019-03-21T05:57:25.659Z,104.90
2019-03-21T05:59:56.127Z,85.70
2019-03-21T06:02:26.697Z,46.10
2019-03-21T06:04:57.163Z,35.70
2019-03-21T06:07:31.623Z,28.30
2019-03-21T06:10:02.078Z,26.90
2019-03-21T06:12:35.754Z,31.83
2019-03-21T06:15:10.865Z,24.90
2019-03-21T06:17:41.418Z,24.07
2019-03-21T06:20:49.879Z,30.17
2019-03-21T06:23:36.996Z,18.60
2019-03-21T06:26:34.724Z,21.60
2019-03-21T06:29:05.248Z,19.60
2019-03-21T06:31:35.732Z,22.80
2019-03-21T06:34:06.259Z,20.43
2019-03-21T06:36:36.759Z,17.17
2019-03-21T06:39:09.425Z,16.67
2019-03-21T06:41:39.907Z,19.10
2019-03-21T06:44:10.365Z,61.17
2019-03-21T06:46:49.004Z,116.67
2019-03-21T06:49:13.011Z,34.03
2019-03-21T06:51:43.525Z,142.07
2019-03-21T06:54:14.111Z,57.57
2019-03-21T06:56:44.553Z,20.23
2019-03-21T06:59:15.130Z,16.63
2019-03-21T07:01:45.656Z,15.90
2019-03-21T07:04:16.138Z,17.40
2019-03-21T07:06:46.672Z,20.30
2019-03-21T07:09:17.166Z,16.17
2019-03-21T07:11:47.664Z,15.40
2019-03-21T07:14:19.530Z,17.03
2019-03-21T07:17:00.018Z,13.43
2019-03-21T07:19:22.220Z,19.20
2019-03-21T07:21:52.703Z,13.63
2019-03-21T07:24:23.193Z,18.13
2019-03-21T07:26:53.668Z,13.97
2019-03-21T07:29:24.141Z,14.23
2019-03-21T07:31:54.614Z,22.97
2019-03-21T07:34:25.098Z,20.30
2019-03-21T07:36:55.550Z,16.50
2019-03-21T07:39:28.579Z,17.07
2019-03-21T07:42:00.907Z,16.17
2019-03-21T07:44:30.454Z,19.90
2019-03-21T07:47:11.705Z,17.67
2019-03-21T07:49:33.098Z,15.67
2019-03-21T07:52:03.665Z,20.27
2019-03-21T07:54:34.135Z,12.63
2019-03-21T07:57:04.640Z,13.47
2019-03-21T07:59:35.139Z,13.23
2019-03-21T08:02:05.660Z,13.17
2019-03-21T08:04:36.814Z,16.77
2019-03-21T08:07:07.312Z,16.73
2019-03-21T08:09:37.859Z,18.20
2019-03-21T08:12:08.330Z,17.83
2019-03-21T08:14:38.801Z,16.50
2019-03-21T08:17:09.296Z,19.70
2019-03-21T08:19:39.789Z,14.00
2019-03-21T08:22:10.308Z,13.90
2019-03-21T08:24:40.816Z,19.07
2019-03-21T08:27:11.349Z,17.50
2019-03-21T08:29:41.962Z,19.20
2019-03-21T08:32:19.687Z,14.47
2019-03-21T08:34:50.194Z,13.10
2019-03-21T08:37:20.652Z,12.10
2019-03-21T08:39:51.133Z,12.63
2019-03-21T08:42:21.592Z,9.97
2019-03-21T08:44:52.086Z,12.60
2019-03-21T08:47:22.568Z,10.77
2019-03-21T08:49:53.076Z,13.17
2019-03-21T08:52:23.508Z,13.00
2019-03-21T08:54:53.994Z,13.73
2019-03-21T08:57:24.453Z,16.83
2019-03-21T08:59:54.946Z,14.73
2019-03-21T09:02:25.410Z,18.50
2019-03-21T09:04:59.680Z,18.53
2019-03-21T09:07:29.762Z,18.70
2019-03-21T09:10:00.437Z,16.87
2019-03-21T09:12:31.015Z,18.43
2019-03-21T09:15:01.472Z,20.00
2019-03-21T09:17:31.961Z,17.70
2019-03-21T09:20:02.426Z,18.33
2019-03-21T09:22:32.906Z,18.20
2019-03-21T09:25:04.894Z,12.80
2019-03-21T09:27:35.591Z,16.23
2019-03-21T09:30:14.691Z,15.30
2019-03-21T09:32:45.236Z,12.83
2019-03-21T09:35:15.792Z,12.80
2019-03-21T09:37:46.249Z,12.50
2019-03-21T09:40:16.801Z,11.97
2019-03-21T09:42:47.252Z,11.63
2019-03-21T09:45:17.814Z,10.23
2019-03-21T09:47:48.273Z,12.57
2019-03-21T09:50:28.593Z,8.87
2019-03-21T09:52:59.065Z,11.90
2019-03-21T09:55:29.554Z,10.67
2019-03-21T09:58:00.014Z,13.70
2019-03-21T10:00:36.317Z,14.93
2019-03-21T10:03:07.144Z,11.50
2019-03-21T10:05:37.648Z,14.30
2019-03-21T10:08:08.181Z,12.93
2019-03-21T10:10:38.687Z,13.80
2019-03-21T10:13:09.150Z,13.53
2019-03-21T10:15:39.665Z,16.90
2019-03-21T10:18:10.171Z,20.27
2019-03-21T10:20:40.638Z,16.23
2019-03-21T10:23:11.159Z,15.30
2019-03-21T10:25:41.635Z,16.90
2019-03-21T10:28:12.136Z,12.67
2019-03-21T10:30:43.705Z,13.00
2019-03-21T10:33:14.819Z,19.10
2019-03-21T10:35:45.430Z,11.20
2019-03-21T10:38:15.938Z,11.07
2019-03-21T10:40:47.811Z,12.13
2019-03-21T10:43:18.296Z,9.40
2019-03-21T10:45:48.790Z,13.10
2019-03-21T10:48:19.258Z,12.03
2019-03-21T10:50:49.738Z,11.43
2019-03-21T10:53:20.201Z,10.70
2019-03-21T10:55:50.691Z,10.80
2019-03-21T10:58:21.148Z,13.87
2019-03-21T11:00:51.642Z,8.67
2019-03-21T11:03:22.099Z,9.47
2019-03-21T11:05:52.657Z,10.43
2019-03-21T11:08:24.371Z,9.20
2019-03-21T11:10:54.872Z,7.63
2019-03-21T11:13:25.338Z,9.03
2019-03-21T11:15:55.837Z,12.10
2019-03-21T11:18:35.720Z,21.17
2019-03-21T11:20:58.530Z,17.77
2019-03-21T11:23:29.041Z,11.87
2019-03-21T11:25:59.508Z,9.53
2019-03-21T11:28:30.002Z,10.90
2019-03-21T11:31:00.460Z,9.63
2019-03-21T11:33:30.953Z,8.40
2019-03-21T11:36:01.453Z,13.37
2019-03-21T11:38:31.931Z,10.27
2019-03-21T11:41:02.442Z,10.67
2019-03-21T11:43:32.925Z,9.07
2019-03-21T11:46:03.412Z,10.00
2019-03-21T11:48:33.884Z,9.13
2019-03-21T11:51:04.351Z,38.83
2019-03-21T11:53:34.924Z,25.30
2019-03-21T11:56:05.459Z,11.03
2019-03-21T11:58:36.019Z,13.33
2019-03-21T12:01:07.801Z,10.90
2019-03-21T12:03:38.301Z,10.90
2019-03-21T12:06:08.798Z,8.13
2019-03-21T12:08:39.250Z,9.87
2019-03-21T12:11:09.814Z,12.00
2019-03-21T12:13:40.371Z,10.10
2019-03-21T12:16:10.835Z,9.87
2019-03-21T12:18:41.329Z,9.13
2019-03-21T12:21:11.782Z,11.37
2019-03-21T12:23:42.298Z,9.13
2019-03-21T12:26:12.770Z,16.90
2019-03-21T12:28:45.558Z,11.10
2019-03-21T12:31:16.098Z,8.30
2019-03-21T12:33:46.614Z,8.80
2019-03-21T12:36:17.104Z,8.53
2019-03-21T12:38:47.626Z,8.83
2019-03-21T12:41:18.086Z,9.03
2019-03-21T12:43:49.136Z,8.23
2019-03-21T12:46:19.598Z,9.63
2019-03-21T12:48:50.094Z,7.67
2019-03-21T12:51:20.570Z,6.80
2019-03-21T12:53:51.062Z,12.27
2019-03-21T12:56:21.525Z,7.40
2019-03-21T12:58:52.021Z,7.23
2019-03-21T13:01:22.551Z,8.30
2019-03-21T13:03:53.041Z,11.17
2019-03-21T13:06:23.545Z,7.30
2019-03-21T13:08:54.000Z,8.33
2019-03-21T13:11:24.500Z,9.30
2019-03-21T13:13:54.990Z,7.57
2019-03-21T13:16:25.482Z,7.63
2019-03-21T13:18:55.986Z,10.43
2019-03-21T13:21:28.012Z,9.73
2019-03-21T13:23:58.500Z,8.60
2019-03-21T13:26:28.990Z,8.90
2019-03-21T13:28:59.447Z,7.90
2019-03-21T13:31:29.935Z,7.50
2019-03-21T13:34:00.429Z,7.07
2019-03-21T13:36:30.926Z,7.80
2019-03-21T13:39:01.410Z,8.47
2019-03-21T13:41:31.895Z,8.23
2019-03-21T13:44:02.356Z,9.57
2019-03-21T13:46:32.861Z,7.20
2019-03-21T13:49:05.818Z,6.20
2019-03-21T13:51:35.554Z,7.40
2019-03-21T13:54:08.648Z,7.07
2019-03-21T13:56:38.536Z,9.43
2019-03-21T13:59:09.947Z,10.70
2019-03-21T14:01:40.440Z,9.80
2019-03-21T14:04:10.908Z,7.53
2019-03-21T14:06:41.404Z,9.50
2019-03-21T14:09:11.863Z,4.87
2019-03-21T14:11:42.373Z,6.80
2019-03-21T14:14:12.829Z,6.13
2019-03-21T14:16:43.321Z,7.03
2019-03-21T14:19:13.812Z,7.13
2019-03-21T14:21:44.311Z,7.10
2019-03-21T14:24:14.791Z,5.00
2019-03-21T14:26:45.274Z,6.57
2019-03-21T14:29:15.768Z,4.40
2019-03-21T14:31:46.327Z,5.57
2019-03-21T14:34:16.796Z,5.53
2019-03-21T14:36:47.285Z,6.63
2019-03-21T14:39:17.794Z,5.60
2019-03-21T14:41:48.260Z,6.53
2019-03-21T14:44:18.752Z,5.23
2019-03-21T14:46:49.211Z,5.53
2019-03-21T14:49:19.695Z,4.97
2019-03-21T14:51:50.561Z,6.57
2019-03-21T14:54:21.047Z,4.67
2019-03-21T14:56:51.540Z,4.97
2019-03-21T14:59:23.727Z,5.10
2019-03-21T15:01:54.224Z,5.63
2019-03-21T15:04:24.689Z,5.03
2019-03-21T15:06:55.181Z,4.93
2019-03-21T15:09:26.875Z,5.13
2019-03-21T15:11:57.496Z,4.87
2019-03-21T15:14:31.932Z,5.67
2019-03-21T15:17:01.719Z,5.37
2019-03-21T15:19:32.212Z,7.00
2019-03-21T15:22:02.706Z,8.07
2019-03-21T15:24:33.171Z,4.70
2019-03-21T15:27:03.656Z,5.50
2019-03-21T15:29:35.461Z,5.60
2019-03-21T15:32:06.759Z,8.93
2019-03-21T15:34:37.249Z,5.30
2019-03-21T15:37:07.731Z,4.73
2019-03-21T15:39:38.221Z,5.27
2019-03-21T15:42:08.687Z,6.73
2019-03-21T15:44:39.176Z,7.13
2019-03-21T15:47:09.677Z,7.13
2019-03-21T15:49:41.710Z,7.43
2019-03-21T15:52:12.176Z,6.33
2019-03-21T15:54:42.687Z,5.70
2019-03-21T15:57:13.149Z,8.93
2019-03-21T15:59:43.631Z,6.10
2019-03-21T16:02:14.104Z,8.47
2019-03-21T16:04:44.594Z,7.00
2019-03-21T16:07:15.060Z,5.77
2019-03-21T16:09:45.558Z,6.90
2019-03-21T16:12:16.048Z,6.10
2019-03-21T16:14:49.154Z,7.90
2019-03-21T16:17:18.712Z,7.00
2019-03-21T16:19:49.172Z,6.13
2019-03-21T16:22:19.672Z,6.50
2019-03-21T16:24:50.180Z,6.50
2019-03-21T16:27:20.697Z,8.17
2019-03-21T16:29:51.157Z,13.43
2019-03-21T16:32:21.654Z,14.10
2019-03-21T16:34:52.161Z,11.53
2019-03-21T16:37:22.973Z,22.00
2019-03-21T16:39:53.458Z,9.10
2019-03-21T16:42:23.922Z,8.27
2019-03-21T16:44:56.357Z,15.47
2019-03-21T16:47:26.884Z,9.30
2019-03-21T16:49:57.347Z,7.80
2019-03-21T16:52:27.850Z,8.77
2019-03-21T16:54:58.303Z,7.80
2019-03-21T16:57:28.799Z,8.37
2019-03-21T16:59:59.286Z,9.23
2019-03-21T17:02:29.780Z,9.20
2019-03-21T17:05:00.510Z,8.53
2019-03-21T17:07:31.029Z,12.83
2019-03-21T17:10:02.584Z,17.10
2019-03-21T17:12:33.124Z,99.30
2019-03-21T17:15:05.326Z,25.13
2019-03-21T17:17:35.835Z,17.67
2019-03-21T17:20:09.039Z,17.20
2019-03-21T17:22:39.553Z,20.70
2019-03-21T17:25:11.544Z,15.63
2019-03-21T17:27:42.068Z,16.33
2019-03-21T17:30:15.456Z,16.63
2019-03-21T17:32:45.955Z,20.10
2019-03-21T17:35:16.599Z,21.40
2019-03-21T17:37:47.086Z,20.30
2019-03-21T17:40:18.098Z,19.17
2019-03-21T17:42:50.204Z,20.47
2019-03-21T17:45:20.860Z,25.07
2019-03-21T17:47:51.433Z,24.53
2019-03-21T17:50:22.307Z,23.80
2019-03-21T17:52:52.812Z,24.07
2019-03-21T17:55:23.316Z,20.80
2019-03-21T17:57:53.825Z,23.47
2019-03-21T18:00:35.474Z,22.60
2019-03-21T18:03:07.208Z,23.77
2019-03-21T18:05:37.709Z,22.97
2019-03-21T18:08:08.889Z,20.23
2019-03-21T18:10:39.446Z,22.63
2019-03-21T18:13:09.914Z,19.63
2019-03-21T18:15:40.423Z,20.50
2019-03-21T18:18:10.906Z,18.03
2019-03-21T18:20:41.512Z,16.53
2019-03-21T18:23:11.989Z,18.00
2019-03-21T18:25:42.573Z,21.13
2019-03-21T18:28:13.043Z,18.70
2019-03-21T18:30:43.560Z,18.27
2019-03-21T18:33:14.057Z,17.80
2019-03-21T18:35:44.637Z,16.93
2019-03-21T18:38:15.113Z,19.73
2019-03-21T18:40:45.622Z,19.87
2019-03-21T18:43:16.166Z,19.40
2019-03-21T18:45:46.820Z,28.67
2019-03-21T18:48:17.316Z,23.90
2019-03-21T18:50:47.802Z,20.60
2019-03-21T18:53:18.313Z,20.10
2019-03-21T18:55:48.888Z,22.10
2019-03-21T18:58:19.392Z,21.13
2019-03-21T19:00:49.927Z,16.80
2019-03-21T19:03:20.417Z,18.83
2019-03-21T19:05:50.900Z,16.73
2019-03-21T19:08:21.401Z,19.47
2019-03-21T19:10:53.510Z,15.93
2019-03-21T19:13:24.006Z,21.23
2019-03-21T19:15:54.475Z,20.13
2019-03-21T19:18:24.991Z,16.50
2019-03-21T19:20:56.211Z,20.40
2019-03-21T19:23:29.964Z,19.10
2019-03-21T19:26:00.449Z,18.73
2019-03-21T19:28:32.686Z,17.67
2019-03-21T19:31:03.132Z,17.97
2019-03-21T19:33:33.619Z,17.87
2019-03-21T19:36:04.229Z,19.77
2019-03-21T19:38:34.730Z,19.47
2019-03-21T19:41:06.541Z,18.27
2019-03-21T19:43:39.100Z,14.50
2019-03-21T19:46:09.560Z,18.10
2019-03-21T19:48:49.786Z,15.37
2019-03-21T19:51:12.313Z,18.30
2019-03-21T19:53:42.873Z,16.53
2019-03-21T19:56:13.362Z,19.30
2019-03-21T19:58:43.823Z,17.47
2019-03-21T20:01:14.330Z,18.47
2019-03-21T20:03:44.842Z,17.47
2019-03-21T20:06:15.320Z,17.73
2019-03-21T20:08:45.834Z,20.80
2019-03-21T20:11:16.378Z,20.50
2019-03-21T20:13:46.870Z,17.93
2019-03-21T20:16:17.340Z,21.07
2019-03-21T20:18:49.728Z,18.03
2019-03-21T20:21:20.220Z,18.20
2019-03-21T20:23:50.747Z,20.63
2019-03-21T20:26:22.510Z,18.90
2019-03-21T20:28:52.969Z,21.17
2019-03-21T20:31:23.477Z,20.93
2019-03-21T20:33:53.941Z,18.57
2019-03-21T20:36:24.435Z,22.40
2019-03-21T20:38:54.898Z,20.63
2019-03-21T20:41:25.407Z,21.03
2019-03-21T20:43:55.901Z,24.10
2019-03-21T20:46:26.380Z,21.90
2019-03-21T20:48:55.296Z,17.73
2019-03-21T20:51:25.756Z,19.90
2019-03-21T20:53:56.260Z,17.73
2019-03-21T20:56:26.721Z,16.73
2019-03-21T20:58:57.289Z,18.30
2019-03-21T21:01:27.777Z,22.70
2019-03-21T21:03:58.251Z,17.97
2019-03-21T21:06:28.741Z,18.60
2019-03-21T21:08:59.205Z,18.90
2019-03-21T21:11:29.697Z,18.87
2019-03-21T21:14:00.171Z,14.47
2019-03-21T21:16:30.670Z,29.67
2019-03-21T21:19:01.212Z,46.27
2019-03-21T21:21:31.715Z,29.33
2019-03-21T21:24:02.181Z,37.67
2019-03-21T21:26:32.677Z,30.17
2019-03-21T21:29:03.131Z,18.87
2019-03-21T21:31:33.620Z,16.40
2019-03-21T21:34:04.645Z,19.67
2019-03-21T21:36:37.943Z,17.20
2019-03-21T21:39:08.575Z,15.50
2019-03-21T21:41:39.061Z,21.17
2019-03-21T21:44:09.593Z,16.57
2019-03-21T21:46:40.086Z,15.80
2019-03-21T21:49:12.988Z,17.33
2019-03-21T21:51:42.738Z,16.30
2019-03-21T21:54:13.231Z,18.70
2019-03-21T21:56:45.422Z,20.03
2019-03-21T21:59:15.886Z,18.37
2019-03-21T22:01:47.531Z,18.17
2019-03-21T22:04:18.128Z,20.63
2019-03-21T22:06:48.633Z,21.03
2019-03-21T22:09:19.124Z,21.53
2019-03-21T22:11:49.601Z,18.97
2019-03-21T22:14:20.093Z,17.00
2019-03-21T22:16:50.588Z,17.67
2019-03-21T22:19:22.265Z,22.97
2019-03-21T22:21:52.754Z,20.07
2019-03-21T22:24:23.215Z,23.40
2019-03-21T22:26:53.709Z,20.67
2019-03-21T22:29:24.175Z,23.27
2019-03-21T22:31:54.658Z,23.03
2019-03-21T22:34:25.149Z,25.50
2019-03-21T22:36:56.763Z,27.77
2019-03-21T22:39:27.249Z,27.47
2019-03-21T22:41:57.742Z,29.17
2019-03-21T22:44:28.201Z,31.73
2019-03-21T22:46:58.699Z,23.40
2019-03-21T22:49:29.281Z,24.07
2019-03-21T22:51:59.747Z,25.80
2019-03-21T22:54:30.604Z,29.80
2019-03-21T22:57:02.140Z,31.67
2019-03-21T22:59:32.623Z,26.27
2019-03-21T23:02:03.596Z,33.90
2019-03-21T23:04:34.167Z,29.37
2019-03-21T23:07:04.701Z,31.50
2019-03-21T23:09:35.209Z,29.57
2019-03-21T23:12:06.009Z,26.50
2019-03-21T23:14:36.506Z,29.43
2019-03-21T23:17:07.039Z,29.53
2019-03-21T23:19:37.549Z,27.10
2019-03-21T23:22:09.187Z,26.60
2019-03-21T23:24:42.007Z,29.27
2019-03-21T23:27:12.457Z,18.10
2019-03-21T23:29:42.956Z,21.40
2019-03-21T23:32:13.423Z,19.20
2019-03-21T23:34:45.246Z,18.63
2019-03-21T23:37:15.710Z,20.40
2019-03-21T23:39:46.215Z,22.33
2019-03-21T23:42:16.755Z,24.20
2019-03-21T23:44:50.455Z,20.93
2019-03-21T23:47:20.941Z,23.37
2019-03-21T23:49:51.501Z,20.17
2019-03-21T23:52:21.995Z,21.87
2019-03-21T23:54:52.483Z,22.80
2019-03-21T23:57:23.094Z,22.57
2019-03-21T23:59:53.592Z,27.17
